Terminal Aerodrome Forecast
Issued by NWS

Home | Current Version | Previous Version | Text Only | Print | Product List | Glossary On
Versions: 1 2 3 4 5 6 7 8 9
219
FTUS45 KABQ 242320
TAFFMN
TAF
KFMN 242320Z 2500/2524 28020G30KT P6SM SCT080 BKN120
     FM250200 27011KT P6SM FEW050 BKN100
     FM251500 29012G20KT 6SM -SHRA OVC030
     FM252100 30023G35KT P6SM VCSH OVC040=

USA.gov is the U.S. government's official web portal to all federal, state and local government web resources and services.